sensor_id;sensor_type;location;lat;lon;timestamp;pressure;altitude;pressure_sealevel;temperature;humidity
13456;BME280;6800;50.940;6.940;2023-01-13T00:01:35;99834.00;;;22.02;41.82
13456;BME280;6800;50.940;6.940;2023-01-13T00:05:36;99840.59;;;21.92;41.54
13456;BME280;6800;50.940;6.940;2023-01-13T00:09:36;99831.53;;;22.01;41.81
13456;BME280;6800;50.940;6.940;2023-01-13T00:13:36;99838.91;;;22.28;41.97
13456;BME280;6800;50.940;6.940;2023-01-13T00:17:37;99834.19;;;21.86;43.29
13456;BME280;6800;50.940;6.940;2023-01-13T00:21:38;99828.88;;;21.86;43.46
13456;BME280;6800;50.940;6.940;2023-01-13T00:25:38;99810.91;;;21.88;43.39
13456;BME280;6800;50.940;6.940;2023-01-13T00:29:38;99829.44;;;21.73;43.71
13456;BME280;6800;50.940;6.940;2023-01-13T00:33:38;99830.09;;;21.30;45.04
13456;BME280;6800;50.940;6.940;2023-01-13T00:37:39;99837.91;;;21.54;44.36
13456;BME280;6800;50.940;6.940;2023-01-13T00:41:40;99836.19;;;21.39;44.27
13456;BME280;6800;50.940;6.940;2023-01-13T00:45:59;99839.47;;;21.63;43.56
13456;BME280;6800;50.940;6.940;2023-01-13T00:49:59;99832.06;;;21.14;45.32
13456;BME280;6800;50.940;6.940;2023-01-13T00:53:59;99817.41;;;21.40;43.82
13456;BME280;6800;50.940;6.940;2023-01-13T00:58:00;99810.81;;;21.14;43.84
13456;BME280;6800;50.940;6.940;2023-01-13T01:02:02;99807.38;;;21.50;42.17
13456;BME280;6800;50.940;6.940;2023-01-13T01:06:06;99802.44;;;20.94;42.05
13456;BME280;6800;50.940;6.940;2023-01-13T01:10:07;99808.81;;;21.38;40.33
13456;BME280;6800;50.940;6.940;2023-01-13T01:14:10;99809.50;;;21.10;39.21
13456;BME280;6800;50.940;6.940;2023-01-13T01:18:11;99810.47;;;21.39;38.48
13456;BME280;6800;50.940;6.940;2023-01-13T01:22:11;99816.72;;;21.24;38.79
13456;BME280;6800;50.940;6.940;2023-01-13T01:26:16;99827.44;;;21.53;38.00
13456;BME280;6800;50.940;6.940;2023-01-13T01:30:16;99838.00;;;21.38;38.24
13456;BME280;6800;50.940;6.940;2023-01-13T01:34:16;99841.13;;;20.80;38.61
13456;BME280;6800;50.940;6.940;2023-01-13T01:38:17;99843.34;;;19.98;39.34
13456;BME280;6800;50.940;6.940;2023-01-13T01:42:17;99870.59;;;20.47;37.84
13456;BME280;6800;50.940;6.940;2023-01-13T01:46:38;99866.53;;;20.75;38.15
13456;BME280;6800;50.940;6.940;2023-01-13T01:50:39;99872.47;;;20.30;38.74
13456;BME280;6800;50.940;6.940;2023-01-13T02:03:09;99856.44;;;19.51;38.68
13456;BME280;6800;50.940;6.940;2023-01-13T02:07:10;99837.25;;;19.57;39.37
13456;BME280;6800;50.940;6.940;2023-01-13T02:11:26;99826.81;;;19.80;38.65
13456;BME280;6800;50.940;6.940;2023-01-13T02:16:05;99837.53;;;20.02;38.10
13456;BME280;6800;50.940;6.940;2023-01-13T02:20:23;99823.31;;;20.03;38.72
13456;BME280;6800;50.940;6.940;2023-01-13T02:42:47;99853.09;;;20.30;39.13
13456;BME280;6800;50.940;6.940;2023-01-13T02:47:21;99851.59;;;20.35;38.57
13456;BME280;6800;50.940;6.940;2023-01-13T02:51:26;99854.09;;;20.04;38.05
13456;BME280;6800;50.940;6.940;2023-01-13T02:55:33;99845.53;;;19.78;38.07
13456;BME280;6800;50.940;6.940;2023-01-13T02:59:36;99837.88;;;20.23;37.88
13456;BME280;6800;50.940;6.940;2023-01-13T03:03:38;99831.25;;;20.11;36.84
13456;BME280;6800;50.940;6.940;2023-01-13T03:07:48;99831.91;;;20.13;36.77
13456;BME280;6800;50.940;6.940;2023-01-13T03:12:09;99833.88;;;20.11;36.55
13456;BME280;6800;50.940;6.940;2023-01-13T03:20:35;99823.63;;;20.00;36.29
13456;BME280;6800;50.940;6.940;2023-01-13T03:24:58;99814.84;;;20.16;36.61
13456;BME280;6800;50.940;6.940;2023-01-13T03:29:12;99818.69;;;19.97;36.21
13456;BME280;6800;50.940;6.940;2023-01-13T03:33:26;99816.19;;;19.96;36.61
13456;BME280;6800;50.940;6.940;2023-01-13T03:37:32;99804.00;;;19.55;37.29
13456;BME280;6800;50.940;6.940;2023-01-13T03:41:48;99821.53;;;19.72;37.15
13456;BME280;6800;50.940;6.940;2023-01-13T03:45:57;99825.97;;;19.95;35.95
13456;BME280;6800;50.940;6.940;2023-01-13T03:54:02;99816.69;;;20.07;36.63
13456;BME280;6800;50.940;6.940;2023-01-13T03:58:13;99820.31;;;20.06;36.35
13456;BME280;6800;50.940;6.940;2023-01-13T04:02:41;99826.47;;;19.91;36.79
13456;BME280;6800;50.940;6.940;2023-01-13T04:07:46;99827.47;;;19.50;37.03
13456;BME280;6800;50.940;6.940;2023-01-13T04:11:18;99817.06;;;19.80;36.35
13456;BME280;6800;50.940;6.940;2023-01-13T04:15:25;99821.66;;;19.94;36.24
13456;BME280;6800;50.940;6.940;2023-01-13T04:19:29;99819.53;;;19.74;36.92
13456;BME280;6800;50.940;6.940;2023-01-13T04:27:42;99837.00;;;19.10;37.98
13456;BME280;6800;50.940;6.940;2023-01-13T04:31:43;99833.59;;;19.50;36.81
13456;BME280;6800;50.940;6.940;2023-01-13T04:35:45;99830.59;;;19.29;37.10
13456;BME280;6800;50.940;6.940;2023-01-13T04:39:45;99827.16;;;19.44;37.08
13456;BME280;6800;50.940;6.940;2023-01-13T04:43:46;99827.44;;;19.33;37.16
13456;BME280;6800;50.940;6.940;2023-01-13T04:47:46;99828.25;;;19.18;37.26
13456;BME280;6800;50.940;6.940;2023-01-13T04:51:47;99836.53;;;19.31;37.26
13456;BME280;6800;50.940;6.940;2023-01-13T04:55:47;99837.97;;;19.09;37.49
13456;BME280;6800;50.940;6.940;2023-01-13T04:59:48;99844.19;;;19.34;37.25
13456;BME280;6800;50.940;6.940;2023-01-13T05:03:48;99839.56;;;19.44;37.39
13456;BME280;6800;50.940;6.940;2023-01-13T05:07:49;99820.66;;;19.23;37.98
13456;BME280;6800;50.940;6.940;2023-01-13T05:11:49;99828.97;;;19.52;36.92
13456;BME280;6800;50.940;6.940;2023-01-13T05:16:09;99815.31;;;19.07;37.29
13456;BME280;6800;50.940;6.940;2023-01-13T05:20:28;99802.81;;;19.41;37.05
13456;BME280;6800;50.940;6.940;2023-01-13T05:24:29;99821.53;;;19.39;37.07
13456;BME280;6800;50.940;6.940;2023-01-13T05:28:47;99815.81;;;19.02;37.64
13456;BME280;6800;50.940;6.940;2023-01-13T05:32:48;99817.16;;;19.22;37.28
13456;BME280;6800;50.940;6.940;2023-01-13T05:36:48;99816.41;;;18.72;37.74
13456;BME280;6800;50.940;6.940;2023-01-13T05:40:48;99829.91;;;19.27;37.10
13456;BME280;6800;50.940;6.940;2023-01-13T05:45:08;99847.78;;;19.17;36.75
13456;BME280;6800;50.940;6.940;2023-01-13T05:49:08;99845.13;;;19.33;36.92
13456;BME280;6800;50.940;6.940;2023-01-13T05:53:08;99837.06;;;19.34;37.20
13456;BME280;6800;50.940;6.940;2023-01-13T05:57:09;99838.19;;;19.32;37.16
13456;BME280;6800;50.940;6.940;2023-01-13T06:01:09;99839.47;;;19.12;37.76
13456;BME280;6800;50.940;6.940;2023-01-13T06:05:10;99856.56;;;19.25;37.39
13456;BME280;6800;50.940;6.940;2023-01-13T06:09:10;99863.50;;;19.26;37.10
13456;BME280;6800;50.940;6.940;2023-01-13T06:13:10;99874.00;;;18.60;38.92
13456;BME280;6800;50.940;6.940;2023-01-13T06:17:13;99874.00;;;19.02;37.67
13456;BME280;6800;50.940;6.940;2023-01-13T06:21:13;99877.75;;;18.92;37.85
13456;BME280;6800;50.940;6.940;2023-01-13T06:25:20;99881.63;;;18.63;38.17
13456;BME280;6800;50.940;6.940;2023-01-13T06:29:21;99881.16;;;19.10;37.49
13456;BME280;6800;50.940;6.940;2023-01-13T06:33:27;99883.06;;;18.92;37.97
13456;BME280;6800;50.940;6.940;2023-01-13T06:37:29;99879.84;;;19.14;37.77
13456;BME280;6800;50.940;6.940;2023-01-13T06:41:31;99884.19;;;19.31;37.02
13456;BME280;6800;50.940;6.940;2023-01-13T06:45:55;99892.09;;;19.15;37.58
13456;BME280;6800;50.940;6.940;2023-01-13T06:49:55;99890.53;;;19.38;37.22
13456;BME280;6800;50.940;6.940;2023-01-13T06:53:56;99884.25;;;18.97;37.52
13456;BME280;6800;50.940;6.940;2023-01-13T06:57:56;99899.34;;;18.71;39.23
13456;BME280;6800;50.940;6.940;2023-01-13T07:01:57;99902.09;;;19.45;37.71
13456;BME280;6800;50.940;6.940;2023-01-13T07:06:00;99903.31;;;18.75;38.07
13456;BME280;6800;50.940;6.940;2023-01-13T07:10:01;99915.84;;;18.65;37.17
13456;BME280;6800;50.940;6.940;2023-01-13T07:14:13;99913.97;;;19.33;36.54
13456;BME280;6800;50.940;6.940;2023-01-13T07:18:33;99917.00;;;19.46;36.52
13456;BME280;6800;50.940;6.940;2023-01-13T07:22:37;99913.66;;;18.94;37.21
13456;BME280;6800;50.940;6.940;2023-01-13T07:26:37;99912.22;;;19.08;37.28
13456;BME280;6800;50.940;6.940;2023-01-13T07:30:37;99926.91;;;19.36;36.68
13456;BME280;6800;50.940;6.940;2023-01-13T07:34:37;99930.34;;;18.87;37.67
13456;BME280;6800;50.940;6.940;2023-01-13T07:38:38;99922.16;;;19.14;36.79
13456;BME280;6800;50.940;6.940;2023-01-13T07:42:43;99924.50;;;18.24;38.47
13456;BME280;6800;50.940;6.940;2023-01-13T07:47:02;99938.25;;;18.35;38.03
13456;BME280;6800;50.940;6.940;2023-01-13T07:51:04;99931.97;;;18.88;37.38
13456;BME280;6800;50.940;6.940;2023-01-13T07:55:05;99940.22;;;18.77;37.65
13456;BME280;6800;50.940;6.940;2023-01-13T07:59:05;99957.97;;;18.66;37.97
13456;BME280;6800;50.940;6.940;2023-01-13T08:03:05;99954.41;;;18.50;38.15
13456;BME280;6800;50.940;6.940;2023-01-13T08:07:06;99949.41;;;18.73;37.74
13456;BME280;6800;50.940;6.940;2023-01-13T08:11:10;99961.38;;;18.33;38.54
13456;BME280;6800;50.940;6.940;2023-01-13T08:15:10;99966.00;;;18.83;38.09
13456;BME280;6800;50.940;6.940;2023-01-13T08:19:10;99970.03;;;18.43;38.67
13456;BME280;6800;50.940;6.940;2023-01-13T08:23:10;99969.63;;;18.56;38.81
13456;BME280;6800;50.940;6.940;2023-01-13T08:27:11;99973.16;;;18.64;38.52
13456;BME280;6800;50.940;6.940;2023-01-13T08:31:15;99968.78;;;18.81;38.10
13456;BME280;6800;50.940;6.940;2023-01-13T08:35:16;99976.94;;;18.62;38.88
13456;BME280;6800;50.940;6.940;2023-01-13T08:39:16;99989.44;;;18.78;38.47
13456;BME280;6800;50.940;6.940;2023-01-13T08:43:17;99989.63;;;19.10;37.69
13456;BME280;6800;50.940;6.940;2023-01-13T08:47:18;100006.47;;;19.09;37.61
13456;BME280;6800;50.940;6.940;2023-01-13T08:51:18;100010.69;;;19.61;36.86
13456;BME280;6800;50.940;6.940;2023-01-13T08:55:18;100014.84;;;18.70;37.71
13456;BME280;6800;50.940;6.940;2023-01-13T08:59:19;100011.06;;;18.99;37.13
13456;BME280;6800;50.940;6.940;2023-01-13T09:03:19;100004.78;;;19.00;37.33
13456;BME280;6800;50.940;6.940;2023-01-13T09:07:19;100010.19;;;19.58;36.00
13456;BME280;6800;50.940;6.940;2023-01-13T09:11:25;99992.63;;;19.49;36.58
13456;BME280;6800;50.940;6.940;2023-01-13T09:15:54;99991.41;;;20.01;35.24
13456;BME280;6800;50.940;6.940;2023-01-13T09:19:55;99994.34;;;19.82;35.25
13456;BME280;6800;50.940;6.940;2023-01-13T09:23:55;100007.25;;;19.77;35.74
13456;BME280;6800;50.940;6.940;2023-01-13T09:27:56;100001.34;;;19.07;36.27
13456;BME280;6800;50.940;6.940;2023-01-13T09:31:56;100000.81;;;19.79;35.14
13456;BME280;6800;50.940;6.940;2023-01-13T09:35:57;100001.81;;;20.10;34.46
13456;BME280;6800;50.940;6.940;2023-01-13T09:39:58;100015.78;;;20.12;34.44
13456;BME280;6800;50.940;6.940;2023-01-13T09:44:03;100013.16;;;20.53;33.47
13456;BME280;6800;50.940;6.940;2023-01-13T09:48:16;100014.31;;;20.34;34.21
13456;BME280;6800;50.940;6.940;2023-01-13T09:52:23;100004.16;;;20.05;34.13
13456;BME280;6800;50.940;6.940;2023-01-13T09:56:24;100015.38;;;21.12;32.38
13456;BME280;6800;50.940;6.940;2023-01-13T10:00:34;100020.44;;;20.35;33.44
13456;BME280;6800;50.940;6.940;2023-01-13T10:09:05;100023.22;;;20.81;33.54
13456;BME280;6800;50.940;6.940;2023-01-13T10:13:16;100012.13;;;22.02;31.41
13456;BME280;6800;50.940;6.940;2023-01-13T10:17:31;100005.81;;;21.42;32.19
13456;BME280;6800;50.940;6.940;2023-01-13T10:21:52;99999.81;;;21.40;32.21
13456;BME280;6800;50.940;6.940;2023-01-13T10:26:15;100008.94;;;21.84;31.48
13456;BME280;6800;50.940;6.940;2023-01-13T10:30:32;100036.34;;;20.67;32.49
13456;BME280;6800;50.940;6.940;2023-01-13T10:34:48;100023.47;;;21.57;31.49
13456;BME280;6800;50.940;6.940;2023-01-13T10:38:50;100000.63;;;20.93;32.38
13456;BME280;6800;50.940;6.940;2023-01-13T10:43:03;100005.19;;;20.53;33.38
13456;BME280;6800;50.940;6.940;2023-01-13T10:47:21;100022.53;;;20.87;32.90
13456;BME280;6800;50.940;6.940;2023-01-13T10:55:37;100024.41;;;20.55;33.08
13456;BME280;6800;50.940;6.940;2023-01-13T10:59:40;100032.53;;;21.40;31.87
13456;BME280;6800;50.940;6.940;2023-01-13T11:03:40;100046.13;;;20.66;33.01
13456;BME280;6800;50.940;6.940;2023-01-13T11:07:48;100049.78;;;20.65;32.95
13456;BME280;6800;50.940;6.940;2023-01-13T11:11:51;100060.44;;;21.36;31.93
13456;BME280;6800;50.940;6.940;2023-01-13T11:16:09;100065.00;;;20.79;32.82
13456;BME280;6800;50.940;6.940;2023-01-13T11:20:13;100058.88;;;20.63;32.38
13456;BME280;6800;50.940;6.940;2023-01-13T11:24:30;100039.09;;;20.17;32.73
13456;BME280;6800;50.940;6.940;2023-01-13T11:28:41;100064.19;;;20.47;32.54
13456;BME280;6800;50.940;6.940;2023-01-13T11:32:57;100077.09;;;21.14;31.76
13456;BME280;6800;50.940;6.940;2023-01-13T11:37:02;100068.47;;;21.12;31.19
13456;BME280;6800;50.940;6.940;2023-01-13T11:41:23;100088.38;;;20.84;31.88
13456;BME280;6800;50.940;6.940;2023-01-13T11:49:35;100094.97;;;21.28;30.92
13456;BME280;6800;50.940;6.940;2023-01-13T11:54:09;100081.75;;;21.04;30.80
13456;BME280;6800;50.940;6.940;2023-01-13T12:07:33;100090.69;;;20.79;31.28
13456;BME280;6800;50.940;6.940;2023-01-13T12:11:56;100087.22;;;20.62;31.20
13456;BME280;6800;50.940;6.940;2023-01-13T12:16:24;100083.06;;;19.70;32.03
13456;BME280;6800;50.940;6.940;2023-01-13T12:20:37;100085.06;;;20.50;31.94
13456;BME280;6800;50.940;6.940;2023-01-13T12:29:04;100094.19;;;20.87;31.42
13456;BME280;6800;50.940;6.940;2023-01-13T12:33:19;100087.06;;;20.32;32.18
13456;BME280;6800;50.940;6.940;2023-01-13T12:37:45;100094.66;;;20.51;32.16
13456;BME280;6800;50.940;6.940;2023-01-13T12:41:57;100085.06;;;20.50;32.44
13456;BME280;6800;50.940;6.940;2023-01-13T12:58:29;100100.72;;;20.03;35.17
13456;BME280;6800;50.940;6.940;2023-01-13T13:11:33;100136.91;;;19.44;38.85
13456;BME280;6800;50.940;6.940;2023-01-13T13:43:13;100194.59;;;18.45;44.91
13456;BME280;6800;50.940;6.940;2023-01-13T13:47:37;100204.25;;;18.00;46.18
13456;BME280;6800;50.940;6.940;2023-01-13T13:51:45;100208.41;;;18.02;46.14
13456;BME280;6800;50.940;6.940;2023-01-13T13:55:56;100216.84;;;18.33;45.90
13456;BME280;6800;50.940;6.940;2023-01-13T13:59:59;100222.06;;;18.25;46.05
13456;BME280;6800;50.940;6.940;2023-01-13T14:08:17;100247.16;;;18.65;45.82
13456;BME280;6800;50.940;6.940;2023-01-13T14:12:25;100244.38;;;18.85;45.04
13456;BME280;6800;50.940;6.940;2023-01-13T14:16:26;100257.16;;;18.72;45.38
13456;BME280;6800;50.940;6.940;2023-01-13T14:20:26;100259.22;;;18.95;45.08
13456;BME280;6800;50.940;6.940;2023-01-13T14:24:29;100259.94;;;18.88;45.38
13456;BME280;6800;50.940;6.940;2023-01-13T14:28:35;100258.78;;;18.73;44.84
13456;BME280;6800;50.940;6.940;2023-01-13T14:32:36;100266.91;;;18.89;44.50
13456;BME280;6800;50.940;6.940;2023-01-13T14:36:37;100276.94;;;18.40;43.54
13456;BME280;6800;50.940;6.940;2023-01-13T14:40:40;100287.16;;;19.15;42.97
13456;BME280;6800;50.940;6.940;2023-01-13T14:44:46;100291.09;;;19.29;42.47
13456;BME280;6800;50.940;6.940;2023-01-13T14:48:49;100283.38;;;19.18;42.60
13456;BME280;6800;50.940;6.940;2023-01-13T14:52:54;100291.78;;;19.31;42.02
13456;BME280;6800;50.940;6.940;2023-01-13T14:57:13;100304.34;;;19.29;42.58
13456;BME280;6800;50.940;6.940;2023-01-13T15:01:37;100295.50;;;19.20;41.96
13456;BME280;6800;50.940;6.940;2023-01-13T15:05:39;100293.06;;;18.37;43.54
13456;BME280;6800;50.940;6.940;2023-01-13T15:09:42;100316.16;;;18.35;43.53
13456;BME280;6800;50.940;6.940;2023-01-13T15:13:54;100321.81;;;19.04;42.50
13456;BME280;6800;50.940;6.940;2023-01-13T15:17:56;100330.91;;;18.75;42.53
13456;BME280;6800;50.940;6.940;2023-01-13T15:21:56;100337.28;;;18.99;42.19
13456;BME280;6800;50.940;6.940;2023-01-13T15:25:58;100351.56;;;18.61;42.06
13456;BME280;6800;50.940;6.940;2023-01-13T15:29:59;100348.16;;;18.69;42.02
13456;BME280;6800;50.940;6.940;2023-01-13T15:33:59;100360.91;;;19.10;41.18
13456;BME280;6800;50.940;6.940;2023-01-13T15:37:59;100357.56;;;18.54;42.10
13456;BME280;6800;50.940;6.940;2023-01-13T15:42:00;100368.88;;;18.46;42.42
13456;BME280;6800;50.940;6.940;2023-01-13T15:46:19;100378.19;;;18.78;42.56
13456;BME280;6800;50.940;6.940;2023-01-13T15:50:37;100380.69;;;18.79;42.53
13456;BME280;6800;50.940;6.940;2023-01-13T15:54:37;100389.03;;;19.29;41.61
13456;BME280;6800;50.940;6.940;2023-01-13T15:58:38;100394.84;;;19.15;42.01
13456;BME280;6800;50.940;6.940;2023-01-13T16:02:38;100394.22;;;19.03;42.00
13456;BME280;6800;50.940;6.940;2023-01-13T16:06:38;100405.88;;;18.37;43.53
13456;BME280;6800;50.940;6.940;2023-01-13T16:10:39;100406.19;;;19.25;42.01
13456;BME280;6800;50.940;6.940;2023-01-13T16:14:39;100413.94;;;18.82;42.80
13456;BME280;6800;50.940;6.940;2023-01-13T16:18:39;100409.81;;;19.06;41.92
13456;BME280;6800;50.940;6.940;2023-01-13T16:22:40;100425.16;;;19.20;42.08
13456;BME280;6800;50.940;6.940;2023-01-13T16:26:40;100431.31;;;19.21;41.79
13456;BME280;6800;50.940;6.940;2023-01-13T16:30:40;100436.28;;;19.24;41.89
13456;BME280;6800;50.940;6.940;2023-01-13T16:34:41;100445.59;;;19.28;42.01
13456;BME280;6800;50.940;6.940;2023-01-13T16:38:42;100438.56;;;19.19;42.09
13456;BME280;6800;50.940;6.940;2023-01-13T16:42:42;100450.59;;;19.31;42.36
13456;BME280;6800;50.940;6.940;2023-01-13T16:46:43;100457.28;;;19.08;42.25
13456;BME280;6800;50.940;6.940;2023-01-13T16:50:44;100461.69;;;19.17;41.96
13456;BME280;6800;50.940;6.940;2023-01-13T16:54:45;100476.97;;;18.96;41.99
13456;BME280;6800;50.940;6.940;2023-01-13T16:58:45;100482.25;;;18.96;41.32
13456;BME280;6800;50.940;6.940;2023-01-13T17:02:46;100492.34;;;19.10;40.76
13456;BME280;6800;50.940;6.940;2023-01-13T17:06:57;100490.25;;;19.13;40.68
13456;BME280;6800;50.940;6.940;2023-01-13T17:10:59;100507.38;;;19.19;40.29
13456;BME280;6800;50.940;6.940;2023-01-13T17:14:59;100502.53;;;18.68;40.40
13456;BME280;6800;50.940;6.940;2023-01-13T17:19:00;100506.06;;;18.96;40.25
13456;BME280;6800;50.940;6.940;2023-01-13T17:23:00;100511.47;;;19.04;40.51
13456;BME280;6800;50.940;6.940;2023-01-13T17:27:00;100519.44;;;19.21;40.44
13456;BME280;6800;50.940;6.940;2023-01-13T17:31:02;100522.16;;;19.02;40.89
13456;BME280;6800;50.940;6.940;2023-01-13T17:35:02;100530.88;;;18.85;40.59
13456;BME280;6800;50.940;6.940;2023-01-13T17:39:03;100524.06;;;18.83;40.74
13456;BME280;6800;50.940;6.940;2023-01-13T17:43:03;100528.41;;;18.64;40.39
13456;BME280;6800;50.940;6.940;2023-01-13T17:47:04;100538.28;;;19.18;39.50
13456;BME280;6800;50.940;6.940;2023-01-13T17:51:10;100541.78;;;19.09;39.52
13456;BME280;6800;50.940;6.940;2023-01-13T17:55:11;100549.78;;;19.00;39.97
13456;BME280;6800;50.940;6.940;2023-01-13T17:59:13;100552.59;;;18.89;39.78
13456;BME280;6800;50.940;6.940;2023-01-13T18:03:15;100556.88;;;18.99;39.19
13456;BME280;6800;50.940;6.940;2023-01-13T18:07:15;100567.06;;;19.31;39.15
13456;BME280;6800;50.940;6.940;2023-01-13T18:11:17;100562.13;;;19.55;38.75
13456;BME280;6800;50.940;6.940;2023-01-13T18:15:17;100566.13;;;19.22;39.65
13456;BME280;6800;50.940;6.940;2023-01-13T18:19:18;100571.00;;;19.17;39.49
13456;BME280;6800;50.940;6.940;2023-01-13T18:23:37;100577.94;;;19.28;39.53
13456;BME280;6800;50.940;6.940;2023-01-13T18:27:56;100580.25;;;19.50;38.64
13456;BME280;6800;50.940;6.940;2023-01-13T18:31:58;100577.81;;;19.20;39.06
13456;BME280;6800;50.940;6.940;2023-01-13T18:36:05;100584.97;;;19.10;39.37
13456;BME280;6800;50.940;6.940;2023-01-13T18:40:07;100598.97;;;19.29;38.50
13456;BME280;6800;50.940;6.940;2023-01-13T18:44:08;100597.59;;;19.35;38.41
13456;BME280;6800;50.940;6.940;2023-01-13T18:48:08;100616.31;;;19.14;38.33
13456;BME280;6800;50.940;6.940;2023-01-13T18:52:09;100619.56;;;19.45;38.07
13456;BME280;6800;50.940;6.940;2023-01-13T18:56:10;100630.56;;;19.50;37.76
13456;BME280;6800;50.940;6.940;2023-01-13T19:00:13;100628.56;;;19.62;37.13
13456;BME280;6800;50.940;6.940;2023-01-13T19:04:16;100616.56;;;19.21;37.76
13456;BME280;6800;50.940;6.940;2023-01-13T19:08:16;100627.06;;;19.50;37.31
13456;BME280;6800;50.940;6.940;2023-01-13T19:12:17;100637.16;;;19.17;38.02
13456;BME280;6800;50.940;6.940;2023-01-13T19:16:25;100656.53;;;19.37;37.41
13456;BME280;6800;50.940;6.940;2023-01-13T19:20:25;100656.63;;;19.45;37.37
13456;BME280;6800;50.940;6.940;2023-01-13T19:24:25;100654.72;;;19.18;37.63
13456;BME280;6800;50.940;6.940;2023-01-13T19:28:25;100651.78;;;19.21;37.13
13456;BME280;6800;50.940;6.940;2023-01-13T19:32:26;100664.16;;;19.30;37.14
13456;BME280;6800;50.940;6.940;2023-01-13T19:36:27;100656.66;;;19.26;37.02
13456;BME280;6800;50.940;6.940;2023-01-13T19:40:27;100660.44;;;19.23;37.49
13456;BME280;6800;50.940;6.940;2023-01-13T19:44:27;100664.31;;;19.19;37.31
13456;BME280;6800;50.940;6.940;2023-01-13T19:48:46;100668.91;;;19.36;37.21
13456;BME280;6800;50.940;6.940;2023-01-13T19:52:47;100666.72;;;19.13;37.34
13456;BME280;6800;50.940;6.940;2023-01-13T19:56:47;100667.66;;;19.31;38.00
13456;BME280;6800;50.940;6.940;2023-01-13T20:00:48;100678.53;;;19.28;36.97
13456;BME280;6800;50.940;6.940;2023-01-13T20:04:48;100684.28;;;19.14;37.50
13456;BME280;6800;50.940;6.940;2023-01-13T20:08:48;100707.50;;;19.29;36.64
13456;BME280;6800;50.940;6.940;2023-01-13T20:12:49;100707.53;;;19.10;37.08
13456;BME280;6800;50.940;6.940;2023-01-13T20:16:49;100709.06;;;18.65;37.69
13456;BME280;6800;50.940;6.940;2023-01-13T20:20:49;100714.91;;;19.07;36.80
13456;BME280;6800;50.940;6.940;2023-01-13T20:24:50;100715.75;;;19.36;36.05
13456;BME280;6800;50.940;6.940;2023-01-13T20:28:54;100713.38;;;18.95;36.99
13456;BME280;6800;50.940;6.940;2023-01-13T20:32:54;100722.72;;;18.70;37.55
13456;BME280;6800;50.940;6.940;2023-01-13T20:36:54;100719.09;;;19.19;36.95
13456;BME280;6800;50.940;6.940;2023-01-13T20:45:06;100735.78;;;19.48;36.25
13456;BME280;6800;50.940;6.940;2023-01-13T20:49:08;100742.22;;;19.17;37.22
13456;BME280;6800;50.940;6.940;2023-01-13T20:53:09;100736.22;;;19.43;36.63
13456;BME280;6800;50.940;6.940;2023-01-13T20:57:10;100748.34;;;19.27;37.24
13456;BME280;6800;50.940;6.940;2023-01-13T21:01:10;100761.16;;;19.03;37.82
13456;BME280;6800;50.940;6.940;2023-01-13T21:05:10;100761.44;;;19.00;37.62
13456;BME280;6800;50.940;6.940;2023-01-13T21:09:11;100773.00;;;19.37;36.86
13456;BME280;6800;50.940;6.940;2023-01-13T21:17:21;100776.78;;;19.34;37.39
13456;BME280;6800;50.940;6.940;2023-01-13T21:25:50;100775.50;;;19.10;37.96
13456;BME280;6800;50.940;6.940;2023-01-13T21:34:08;100774.28;;;19.42;37.18
13456;BME280;6800;50.940;6.940;2023-01-13T21:38:10;100772.03;;;19.48;37.27
13456;BME280;6800;50.940;6.940;2023-01-13T21:42:14;100782.19;;;19.04;37.71
13456;BME280;6800;50.940;6.940;2023-01-13T21:46:32;100786.38;;;18.97;38.24
13456;BME280;6800;50.940;6.940;2023-01-13T21:50:52;100799.47;;;19.08;37.92
13456;BME280;6800;50.940;6.940;2023-01-13T21:54:52;100792.78;;;19.23;37.93
13456;BME280;6800;50.940;6.940;2023-01-13T21:59:11;100790.41;;;19.20;37.63
13456;BME280;6800;50.940;6.940;2023-01-13T22:03:12;100803.22;;;19.06;37.59
13456;BME280;6800;50.940;6.940;2023-01-13T22:07:13;100811.44;;;19.12;38.24
13456;BME280;6800;50.940;6.940;2023-01-13T22:11:13;100820.81;;;18.67;38.60
13456;BME280;6800;50.940;6.940;2023-01-13T22:15:15;100816.97;;;18.81;37.97
13456;BME280;6800;50.940;6.940;2023-01-13T22:19:15;100828.28;;;19.02;37.82
13456;BME280;6800;50.940;6.940;2023-01-13T22:23:17;100832.78;;;19.39;37.70
13456;BME280;6800;50.940;6.940;2023-01-13T22:27:24;100825.94;;;19.56;38.58
13456;BME280;6800;50.940;6.940;2023-01-13T22:31:24;100822.53;;;19.92;38.10
13456;BME280;6800;50.940;6.940;2023-01-13T22:35:25;100844.59;;;19.83;36.84
13456;BME280;6800;50.940;6.940;2023-01-13T22:39:25;100848.38;;;19.33;37.65
13456;BME280;6800;50.940;6.940;2023-01-13T22:43:26;100848.41;;;19.42;37.22
13456;BME280;6800;50.940;6.940;2023-01-13T22:47:26;100863.31;;;19.34;37.62
13456;BME280;6800;50.940;6.940;2023-01-13T22:51:30;100857.28;;;19.80;36.67
13456;BME280;6800;50.940;6.940;2023-01-13T22:55:30;100871.53;;;19.69;36.87
13456;BME280;6800;50.940;6.940;2023-01-13T22:59:30;100872.09;;;19.44;37.27
13456;BME280;6800;50.940;6.940;2023-01-13T23:03:31;100872.66;;;19.38;37.33
13456;BME280;6800;50.940;6.940;2023-01-13T23:07:31;100875.13;;;19.87;36.25
13456;BME280;6800;50.940;6.940;2023-01-13T23:11:31;100876.69;;;19.52;37.09
13456;BME280;6800;50.940;6.940;2023-01-13T23:15:35;100875.00;;;19.79;36.46
13456;BME280;6800;50.940;6.940;2023-01-13T23:19:38;100876.28;;;19.56;36.98
13456;BME280;6800;50.940;6.940;2023-01-13T23:23:38;100876.75;;;19.21;37.37
13456;BME280;6800;50.940;6.940;2023-01-13T23:27:39;100878.44;;;19.32;37.32
13456;BME280;6800;50.940;6.940;2023-01-13T23:31:39;100881.56;;;19.37;37.04
13456;BME280;6800;50.940;6.940;2023-01-13T23:35:39;100893.69;;;19.49;37.04
13456;BME280;6800;50.940;6.940;2023-01-13T23:39:40;100886.59;;;18.91;38.26
13456;BME280;6800;50.940;6.940;2023-01-13T23:43:41;100901.16;;;19.25;37.55
13456;BME280;6800;50.940;6.940;2023-01-13T23:47:42;100910.97;;;19.43;37.33
13456;BME280;6800;50.940;6.940;2023-01-13T23:51:42;100896.06;;;19.42;36.93
13456;BME280;6800;50.940;6.940;2023-01-13T23:55:45;100899.44;;;19.05;38.08
13456;BME280;6800;50.940;6.940;2023-01-13T23:59:45;100895.19;;;19.23;37.16
